»·PEaware :: N35CF KPMD-KNZY

N35CF :: KPMD-KNZY

FLIGHT INFORMATION

Flight Status: Arrived
Operator: Privately registered:
United States
More flights under this callsign
Pilot: Todd C. (18613)
Aircraft: BEECH AIRCRAFT A90-E90 KING AIR
(BE9L)
More flights by this aircraft type
Origin: KPMD Palmdale AF Plant 42
United States
Destination: KNZY North Island NAS
United States
More flights between these airports :: More routes between these airports
Route: +PMD V201 BERRI V459 SLI V23 MZB
File this flight plan on PilotEdge
Remarks:
Altitude:
(Current/Filed)
11,000ft
Speed:
(Current/Filed)
215kts
Departed: 08-Jul-19 11:32 AM
Arrived: 08-Jul-19 12:32 PM
Distance/Time
Traveled:
124nm/1:00
Distance/Time
To Go:
Arrived

Flight Plot

Page will automatically refresh every two minutes.

Flight plan parsing failed; only flown route is shown


Map Options




Map Legend


Flown Route
Filed Route
Departure Airport
Arrival Airport
Navaid (VOR, NDB)
Fix

Horizontal Profiles

Position Reports

Time Latitude Longitude Heading Altitude Ground
Speed
08-Jul-19 10:29 34.638856 -118.067867 270 2490ft 0kts
08-Jul-19 10:30 34.638856 -118.067867 270 2490ft 0kts
08-Jul-19 10:31 34.638856 -118.067867 270 2490ft 0kts
08-Jul-19 10:32 34.638856 -118.067867 270 2490ft 0kts
08-Jul-19 10:33 34.638856 -118.067867 270 2490ft 0kts
08-Jul-19 10:34 34.638856 -118.067867 270 2490ft 0kts
08-Jul-19 10:35 34.638856 -118.067867 270 2490ft 0kts
08-Jul-19 10:36 34.638856 -118.067867 270 2490ft 0kts
08-Jul-19 10:37 34.638856 -118.067867 270 2490ft 0kts
08-Jul-19 10:38 34.638856 -118.067867 270 2490ft 0kts
08-Jul-19 10:39 34.638856 -118.067867 270 2490ft 0kts
08-Jul-19 10:40 34.638856 -118.067867 270 2490ft 0kts
08-Jul-19 10:41 34.638856 -118.067867 270 2490ft 0kts
08-Jul-19 10:42 34.638856 -118.067867 270 2490ft 0kts
08-Jul-19 10:43 34.638856 -118.067867 270 2490ft 0kts
08-Jul-19 10:44 34.638856 -118.067867 270 2490ft 0kts
08-Jul-19 10:45 34.638856 -118.067867 270 2490ft 0kts
08-Jul-19 10:46 34.638856 -118.067867 270 2490ft 0kts
08-Jul-19 10:47 34.638856 -118.067867 270 2490ft 0kts
08-Jul-19 10:48 34.638856 -118.067867 270 2490ft 0kts
08-Jul-19 10:49 34.638856 -118.067867 270 2490ft 0kts
08-Jul-19 10:50 34.638856 -118.067867 270 2490ft 0kts
08-Jul-19 10:51 34.638856 -118.067867 270 2490ft 0kts
08-Jul-19 10:52 34.638856 -118.067867 270 2490ft 0kts
08-Jul-19 10:53 34.638856 -118.067867 270 2490ft 0kts
08-Jul-19 10:54 34.638856 -118.067867 270 2490ft 0kts
08-Jul-19 10:55 34.638856 -118.067867 270 2490ft 0kts
08-Jul-19 10:56 34.638856 -118.067867 270 2490ft 0kts
08-Jul-19 10:58 34.638856 -118.067867 270 2490ft 0kts
08-Jul-19 10:59 34.638856 -118.067867 270 2490ft 0kts
08-Jul-19 11:00 34.638856 -118.067867 270 2490ft 0kts
08-Jul-19 11:01 34.638856 -118.067867 270 2490ft 0kts
08-Jul-19 11:02 34.638856 -118.067867 270 2490ft 0kts
08-Jul-19 11:03 34.638856 -118.067867 270 2490ft 0kts
08-Jul-19 11:04 34.638856 -118.067867 270 2490ft 0kts
08-Jul-19 11:05 34.638856 -118.067867 270 2490ft 0kts
08-Jul-19 11:06 34.638856 -118.067867 270 2490ft 0kts
08-Jul-19 11:07 34.638856 -118.067867 270 2490ft 0kts
08-Jul-19 11:08 34.638856 -118.067867 270 2490ft 0kts
08-Jul-19 11:09 34.638856 -118.067867 270 2490ft 0kts
08-Jul-19 11:10 34.638856 -118.067867 270 2490ft 0kts
08-Jul-19 11:11 34.638856 -118.067867 270 2490ft 0kts
08-Jul-19 11:12 34.638856 -118.067867 270 2490ft 0kts
08-Jul-19 11:13 34.638856 -118.067867 270 2490ft 0kts
08-Jul-19 11:14 34.638856 -118.067867 270 2490ft 0kts
08-Jul-19 11:15 34.638856 -118.067867 269 2490ft 0kts
08-Jul-19 11:16 34.638856 -118.067867 270 2490ft 0kts
08-Jul-19 11:17 34.638856 -118.067867 270 2490ft 0kts
08-Jul-19 11:17 34.638856 -118.067867 270 2490ft 0kts
08-Jul-19 11:19 34.638856 -118.067867 270 2490ft 0kts
08-Jul-19 11:20 34.638856 -118.067867 270 2490ft 0kts
08-Jul-19 11:20 34.638856 -118.067867 270 2490ft 0kts
08-Jul-19 11:21 34.638859 -118.070779 270 2489ft 19kts
08-Jul-19 11:23 34.635866 -118.069026 87 2494ft 30kts
08-Jul-19 11:23 34.637998 -118.061271 139 2490ft 11kts
08-Jul-19 11:24 34.637923 -118.061199 143 2490ft 0kts
08-Jul-19 11:25 34.637923 -118.061199 143 2490ft 0kts
08-Jul-19 11:26 34.637923 -118.061199 143 2490ft 0kts
08-Jul-19 11:27 34.637923 -118.061199 143 2490ft 0kts
08-Jul-19 11:28 34.637923 -118.061199 143 2490ft 0kts
08-Jul-19 11:29 34.637923 -118.061199 143 2490ft 0kts
08-Jul-19 11:30 34.637860 -118.061142 143 2490ft 1kts
08-Jul-19 11:31 34.630664 -118.070809 233 2690ft 104kts
08-Jul-19 11:32 34.630082 -118.107911 322 4162ft 148kts
08-Jul-19 11:33 34.671879 -118.122292 318 5701ft 152kts
08-Jul-19 11:34 34.708288 -118.160990 313 6277ft 187kts
08-Jul-19 11:35 34.742385 -118.205951 310 7471ft 174kts
08-Jul-19 11:36 34.775329 -118.250185 309 8452ft 177kts
08-Jul-19 11:38 34.766252 -118.271033 97 10477ft 172kts
08-Jul-19 11:39 34.731045 -118.187436 133 10924ft 219kts
08-Jul-19 11:40 34.687591 -118.133107 136 10947ft 228kts
08-Jul-19 11:41 34.642736 -118.077554 136 10949ft 231kts
08-Jul-19 11:42 34.593838 -118.067908 248 10952ft 212kts
08-Jul-19 11:43 34.548590 -118.109092 204 10949ft 218kts
08-Jul-19 11:44 34.492679 -118.137803 205 10954ft 218kts
08-Jul-19 11:45 34.437131 -118.167001 205 10968ft 218kts
08-Jul-19 11:46 34.381607 -118.196320 205 10994ft 217kts
08-Jul-19 11:47 34.326192 -118.225588 205 11013ft 217kts
08-Jul-19 11:48 34.270169 -118.255139 206 11018ft 221kts
08-Jul-19 11:49 34.212650 -118.280961 186 11017ft 224kts
08-Jul-19 11:50 34.151282 -118.278521 151 11019ft 229kts
08-Jul-19 11:51 34.095230 -118.241272 156 11015ft 229kts
08-Jul-19 11:52 34.037907 -118.206923 155 11017ft 229kts
08-Jul-19 11:53 33.980450 -118.172491 155 11017ft 230kts
08-Jul-19 11:54 33.923296 -118.138102 156 11015ft 227kts
08-Jul-19 11:55 33.866632 -118.103948 156 11014ft 227kts
08-Jul-19 11:56 33.809937 -118.069748 155 10986ft 228kts
08-Jul-19 11:57 33.758495 -118.027756 134 10986ft 230kts
08-Jul-19 11:58 33.714174 -117.971467 136 10986ft 231kts
08-Jul-19 11:59 33.701048 -117.955266 136 10986ft 231kts
08-Jul-19 12:00 33.701048 -117.955266 136 10986ft 231kts
08-Jul-19 12:01 33.594900 -117.826065 136 10986ft 231kts
08-Jul-19 12:02 33.549586 -117.771234 136 10986ft 231kts
08-Jul-19 12:03 33.504402 -117.716616 136 11011ft 230kts
08-Jul-19 12:04 33.458080 -117.663229 138 11014ft 231kts
08-Jul-19 12:05 33.411317 -117.610286 138 11014ft 232kts
08-Jul-19 12:06 33.364429 -117.557281 138 11014ft 232kts
08-Jul-19 12:07 33.317386 -117.504190 138 11014ft 232kts
08-Jul-19 12:08 33.270415 -117.451087 138 11014ft 232kts
08-Jul-19 12:09 33.220077 -117.405184 165 10946ft 231kts
08-Jul-19 12:10 33.157031 -117.380086 162 9796ft 240kts
08-Jul-19 12:11 33.094441 -117.353098 161 8685ft 239kts
08-Jul-19 12:12 33.032005 -117.325917 161 7584ft 238kts
08-Jul-19 12:13 32.971101 -117.299266 161 7009ft 226kts
08-Jul-19 12:14 32.911689 -117.273270 163 7008ft 224kts
08-Jul-19 12:15 32.853151 -117.251868 164 7010ft 214kts
08-Jul-19 12:16 32.797796 -117.226174 127 7006ft 222kts
08-Jul-19 12:17 32.783554 -117.154310 102 7017ft 224kts
08-Jul-19 12:18 32.770999 -117.079227 102 6235ft 233kts
08-Jul-19 12:19 32.758561 -117.004518 102 5264ft 229kts
08-Jul-19 12:20 32.746720 -116.933769 101 4982ft 202kts
08-Jul-19 12:21 32.735548 -116.871120 114 4967ft 187kts
08-Jul-19 12:22 32.685749 -116.863334 197 5011ft 209kts
08-Jul-19 12:23 32.649480 -116.904349 287 4971ft 201kts
08-Jul-19 12:24 32.682742 -116.955931 300 3353ft 173kts
08-Jul-19 12:25 32.691962 -117.001894 278 2496ft 133kts
08-Jul-19 12:26 32.699348 -117.042246 277 2623ft 127kts
08-Jul-19 12:27 32.707215 -117.087819 285 2314ft 153kts
08-Jul-19 12:28 32.720453 -117.131517 285 1331ft 137kts
08-Jul-19 12:29 32.730424 -117.174231 281 611ft 124kts
08-Jul-19 12:30 32.720388 -117.205890 224 418ft 102kts
08-Jul-19 12:31 32.701872 -117.213984 135 19ft 12kts
08-Jul-19 12:32 32.701666 -117.213428 106 19ft 0kts

Navigation Log

Ident Type
Flight plan parsing failed, navigation log unavailable